sensor_id;sensor_type;location;lat;lon;timestamp;pressure;altitude;pressure_sealevel;temperature;humidity
69570;BME280;56781;42.292;23.146;2023-12-22T00:00:25;94151.94;;;-2.91;88.78
69570;BME280;56781;42.292;23.146;2023-12-22T00:02:55;94127.28;;;-3.01;87.45
69570;BME280;56781;42.292;23.146;2023-12-22T00:05:23;94003.78;;;-3.78;86.53
69570;BME280;56781;42.292;23.146;2023-12-22T00:07:53;94083.97;;;-3.13;87.64
69570;BME280;56781;42.292;23.146;2023-12-22T00:10:25;94095.03;;;-3.30;88.05
69570;BME280;56781;42.292;23.146;2023-12-22T00:12:54;93917.28;;;-4.42;88.61
69570;BME280;56781;42.292;23.146;2023-12-22T00:15:22;93774.88;;;-5.67;88.44
69570;BME280;56781;42.292;23.146;2023-12-22T00:17:51;93828.09;;;-5.51;88.59
69570;BME280;56781;42.292;23.146;2023-12-22T00:20:21;94042.53;;;-3.73;88.74
69570;BME280;56781;42.292;23.146;2023-12-22T00:22:50;94100.06;;;-3.48;88.72
69570;BME280;56781;42.292;23.146;2023-12-22T00:25:19;94045.53;;;-3.71;89.25
69570;BME280;56781;42.292;23.146;2023-12-22T00:27:50;93861.50;;;-4.85;87.96
69570;BME280;56781;42.292;23.146;2023-12-22T00:30:19;94005.66;;;-3.78;88.92
69570;BME280;56781;42.292;23.146;2023-12-22T00:32:48;94026.13;;;-3.77;89.54
69570;BME280;56781;42.292;23.146;2023-12-22T00:35:17;93985.38;;;-3.99;89.95
69570;BME280;56781;42.292;23.146;2023-12-22T00:37:46;94092.47;;;-3.23;90.08
69570;BME280;56781;42.292;23.146;2023-12-22T00:40:15;94089.06;;;-3.31;90.29
69570;BME280;56781;42.292;23.146;2023-12-22T00:42:45;93803.66;;;-5.46;90.48
69570;BME280;56781;42.292;23.146;2023-12-22T00:45:15;93746.38;;;-5.60;91.08
69570;BME280;56781;42.292;23.146;2023-12-22T00:47:45;93979.94;;;-3.80;91.62
69570;BME280;56781;42.292;23.146;2023-12-22T00:50:15;93980.06;;;-3.62;90.46
69570;BME280;56781;42.292;23.146;2023-12-22T00:52:43;93920.28;;;-3.96;89.64
69570;BME280;56781;42.292;23.146;2023-12-22T00:55:13;93996.75;;;-3.19;88.99
69570;BME280;56781;42.292;23.146;2023-12-22T00:57:42;93702.66;;;-5.10;88.68
69570;BME280;56781;42.292;23.146;2023-12-22T01:00:12;94051.97;;;-2.37;89.29
69570;BME280;56781;42.292;23.146;2023-12-22T01:02:44;94072.38;;;-2.57;89.75
69570;BME280;56781;42.292;23.146;2023-12-22T01:05:14;93910.94;;;-3.45;88.69
69570;BME280;56781;42.292;23.146;2023-12-22T01:07:43;94097.50;;;-2.24;87.37
69570;BME280;56781;42.292;23.146;2023-12-22T01:10:13;93936.75;;;-3.22;88.53
69570;BME280;56781;42.292;23.146;2023-12-22T01:12:42;93927.47;;;-3.16;89.11
69570;BME280;56781;42.292;23.146;2023-12-22T01:15:11;93975.16;;;-3.16;89.74
69570;BME280;56781;42.292;23.146;2023-12-22T01:17:39;93709.66;;;-4.70;88.94
69570;BME280;56781;42.292;23.146;2023-12-22T01:20:11;93846.69;;;-3.86;89.27
69570;BME280;56781;42.292;23.146;2023-12-22T01:22:40;94048.53;;;-2.55;89.80
69570;BME280;56781;42.292;23.146;2023-12-22T01:25:09;93849.50;;;-4.08;89.47
69570;BME280;56781;42.292;23.146;2023-12-22T01:27:39;94039.56;;;-2.54;88.92
69570;BME280;56781;42.292;23.146;2023-12-22T01:30:09;93946.09;;;-3.14;89.13
69570;BME280;56781;42.292;23.146;2023-12-22T01:32:37;93893.78;;;-3.50;89.58
69570;BME280;56781;42.292;23.146;2023-12-22T01:35:07;94012.22;;;-2.78;88.86
69570;BME280;56781;42.292;23.146;2023-12-22T01:37:39;93700.81;;;-4.58;89.23
69570;BME280;56781;42.292;23.146;2023-12-22T01:40:08;93695.22;;;-4.60;88.92
69570;BME280;56781;42.292;23.146;2023-12-22T01:42:37;93964.16;;;-2.77;88.99
69570;BME280;56781;42.292;23.146;2023-12-22T01:45:07;93975.72;;;-2.75;89.31
69570;BME280;56781;42.292;23.146;2023-12-22T01:47:38;93822.97;;;-3.59;89.24
69570;BME280;56781;42.292;23.146;2023-12-22T01:50:09;93730.97;;;-4.50;88.61
69570;BME280;56781;42.292;23.146;2023-12-22T01:52:42;94040.41;;;-2.36;89.70
69570;BME280;56781;42.292;23.146;2023-12-22T01:55:12;93931.31;;;-2.85;90.05
69570;BME280;56781;42.292;23.146;2023-12-22T01:57:44;93965.75;;;-2.48;89.91
69570;BME280;56781;42.292;23.146;2023-12-22T02:00:14;93967.31;;;-2.18;88.35
69570;BME280;56781;42.292;23.146;2023-12-22T02:02:43;93884.31;;;-3.03;88.44
69570;BME280;56781;42.292;23.146;2023-12-22T02:05:12;93984.84;;;-2.18;88.97
69570;BME280;56781;42.292;23.146;2023-12-22T02:07:43;93860.47;;;-3.02;89.35
69570;BME280;56781;42.292;23.146;2023-12-22T02:10:14;93978.13;;;-2.23;88.83
69570;BME280;56781;42.292;23.146;2023-12-22T02:12:43;93645.25;;;-4.18;87.99
69570;BME280;56781;42.292;23.146;2023-12-22T02:15:12;94018.88;;;-1.79;88.81
69570;BME280;56781;42.292;23.146;2023-12-22T02:17:45;93845.19;;;-2.92;86.70
69570;BME280;56781;42.292;23.146;2023-12-22T02:20:18;93916.13;;;-2.62;87.95
69570;BME280;56781;42.292;23.146;2023-12-22T02:22:52;93689.03;;;-4.34;89.03
69570;BME280;56781;42.292;23.146;2023-12-22T02:25:21;93951.94;;;-2.44;89.70
69570;BME280;56781;42.292;23.146;2023-12-22T02:27:52;93814.59;;;-3.10;88.34
69570;BME280;56781;42.292;23.146;2023-12-22T02:30:25;93825.34;;;-3.25;87.79
69570;BME280;56781;42.292;23.146;2023-12-22T02:32:58;93819.06;;;-3.07;88.52
69570;BME280;56781;42.292;23.146;2023-12-22T02:35:29;93994.25;;;-1.82;88.08
69570;BME280;56781;42.292;23.146;2023-12-22T02:38:02;93913.53;;;-2.48;87.96
69570;BME280;56781;42.292;23.146;2023-12-22T02:40:33;93687.41;;;-3.80;87.67
69570;BME280;56781;42.292;23.146;2023-12-22T02:43:03;93919.44;;;-2.68;88.93
69570;BME280;56781;42.292;23.146;2023-12-22T02:45:33;93940.78;;;-2.41;89.43
69570;BME280;56781;42.292;23.146;2023-12-22T02:48:02;93888.91;;;-2.47;88.91
69570;BME280;56781;42.292;23.146;2023-12-22T02:50:31;93664.88;;;-4.38;89.81
69570;BME280;56781;42.292;23.146;2023-12-22T02:53:01;93681.09;;;-3.76;88.54
69570;BME280;56781;42.292;23.146;2023-12-22T02:55:30;93883.66;;;-2.64;89.31
69570;BME280;56781;42.292;23.146;2023-12-22T02:57:59;94004.31;;;-1.70;89.55
69570;BME280;56781;42.292;23.146;2023-12-22T03:00:28;93889.59;;;-2.71;90.75
69570;BME280;56781;42.292;23.146;2023-12-22T03:02:56;93694.47;;;-3.85;89.29
69570;BME280;56781;42.292;23.146;2023-12-22T03:05:25;93985.25;;;-1.63;89.11
69570;BME280;56781;42.292;23.146;2023-12-22T03:07:54;93610.66;;;-4.19;89.50
69570;BME280;56781;42.292;23.146;2023-12-22T03:10:25;93837.44;;;-2.50;90.20
69570;BME280;56781;42.292;23.146;2023-12-22T03:12:54;93938.97;;;-1.66;89.38
69570;BME280;56781;42.292;23.146;2023-12-22T03:15:22;93560.03;;;-4.39;88.50
69570;BME280;56781;42.292;23.146;2023-12-22T03:17:50;93609.25;;;-3.80;90.01
69570;BME280;56781;42.292;23.146;2023-12-22T03:20:20;93740.47;;;-3.02;90.41
69570;BME280;56781;42.292;23.146;2023-12-22T03:22:49;93758.34;;;-2.93;90.75
69570;BME280;56781;42.292;23.146;2023-12-22T03:25:18;93592.53;;;-3.83;91.10
69570;BME280;56781;42.292;23.146;2023-12-22T03:27:48;93864.28;;;-1.78;90.70
69570;BME280;56781;42.292;23.146;2023-12-22T03:30:17;93913.56;;;-1.55;90.63
69570;BME280;56781;42.292;23.146;2023-12-22T03:32:46;93595.09;;;-3.90;91.76
69570;BME280;56781;42.292;23.146;2023-12-22T03:35:15;93947.16;;;-1.39;91.40
69570;BME280;56781;42.292;23.146;2023-12-22T03:37:44;93733.78;;;-2.74;91.29
69570;BME280;56781;42.292;23.146;2023-12-22T03:40:13;93891.84;;;-1.38;90.90
69570;BME280;56781;42.292;23.146;2023-12-22T03:42:42;93808.69;;;-1.89;90.39
69570;BME280;56781;42.292;23.146;2023-12-22T03:45:13;93802.00;;;-2.01;90.53
69570;BME280;56781;42.292;23.146;2023-12-22T03:47:42;93848.19;;;-1.48;90.49
69570;BME280;56781;42.292;23.146;2023-12-22T03:50:11;93601.13;;;-3.15;90.79
69570;BME280;56781;42.292;23.146;2023-12-22T03:52:39;93727.41;;;-2.30;90.24
69570;BME280;56781;42.292;23.146;2023-12-22T03:55:09;93595.16;;;-2.97;90.61
69570;BME280;56781;42.292;23.146;2023-12-22T03:57:38;93671.88;;;-2.56;90.22
69570;BME280;56781;42.292;23.146;2023-12-22T04:00:08;93752.38;;;-2.15;89.96
69570;BME280;56781;42.292;23.146;2023-12-22T04:02:39;93837.31;;;-1.39;89.94
69570;BME280;56781;42.292;23.146;2023-12-22T04:05:11;93821.19;;;-1.30;89.37
69570;BME280;56781;42.292;23.146;2023-12-22T04:07:40;93700.16;;;-2.29;89.16
69570;BME280;56781;42.292;23.146;2023-12-22T04:10:09;93848.03;;;-1.08;88.47
69570;BME280;56781;42.292;23.146;2023-12-22T04:12:38;93884.97;;;-0.92;88.85
69570;BME280;56781;42.292;23.146;2023-12-22T04:15:07;93755.31;;;-1.88;89.07
69570;BME280;56781;42.292;23.146;2023-12-22T04:17:38;93501.34;;;-3.69;89.11
69570;BME280;56781;42.292;23.146;2023-12-22T04:20:07;93576.16;;;-3.12;90.17
69570;BME280;56781;42.292;23.146;2023-12-22T04:22:37;93562.75;;;-3.39;90.70
69570;BME280;56781;42.292;23.146;2023-12-22T04:25:06;93887.91;;;-0.83;89.66
69570;BME280;56781;42.292;23.146;2023-12-22T04:27:36;93576.50;;;-2.99;89.55
69570;BME280;56781;42.292;23.146;2023-12-22T04:30:06;93607.06;;;-2.89;89.27
69570;BME280;56781;42.292;23.146;2023-12-22T04:32:35;93680.03;;;-2.29;89.16
69570;BME280;56781;42.292;23.146;2023-12-22T04:35:06;93895.38;;;-0.82;89.28
69570;BME280;56781;42.292;23.146;2023-12-22T04:37:35;93660.97;;;-2.26;89.04
69570;BME280;56781;42.292;23.146;2023-12-22T04:40:05;93909.81;;;-0.45;88.83
69570;BME280;56781;42.292;23.146;2023-12-22T04:42:34;93906.53;;;-0.60;88.79
69570;BME280;56781;42.292;23.146;2023-12-22T04:45:03;93813.25;;;-1.09;88.68
69570;BME280;56781;42.292;23.146;2023-12-22T04:47:33;93601.75;;;-2.50;88.75
69570;BME280;56781;42.292;23.146;2023-12-22T04:50:02;93628.53;;;-2.32;89.45
69570;BME280;56781;42.292;23.146;2023-12-22T04:52:33;93860.97;;;-0.76;90.54
69570;BME280;56781;42.292;23.146;2023-12-22T04:55:02;93864.66;;;-0.70;89.68
69570;BME280;56781;42.292;23.146;2023-12-22T04:57:31;93527.31;;;-3.01;88.31
69570;BME280;56781;42.292;23.146;2023-12-22T05:00:00;93861.78;;;-0.87;89.02
69570;BME280;56781;42.292;23.146;2023-12-22T05:02:29;93588.38;;;-2.63;88.98
69570;BME280;56781;42.292;23.146;2023-12-22T05:04:58;93755.22;;;-1.70;90.20
69570;BME280;56781;42.292;23.146;2023-12-22T05:07:28;93949.75;;;-0.26;89.54
69570;BME280;56781;42.292;23.146;2023-12-22T05:09:59;93601.00;;;-2.54;90.10
69570;BME280;56781;42.292;23.146;2023-12-22T05:12:28;93809.16;;;-1.10;90.76
69570;BME280;56781;42.292;23.146;2023-12-22T05:14:57;93821.06;;;-1.02;89.81
69570;BME280;56781;42.292;23.146;2023-12-22T05:17:25;93882.53;;;-0.51;90.88
69570;BME280;56781;42.292;23.146;2023-12-22T05:19:54;93907.69;;;-0.09;88.99
69570;BME280;56781;42.292;23.146;2023-12-22T05:22:23;93937.97;;;-0.01;90.29
69570;BME280;56781;42.292;23.146;2023-12-22T05:24:53;93910.59;;;0.08;89.16
69570;BME280;56781;42.292;23.146;2023-12-22T05:27:24;93642.94;;;-1.92;89.59
69570;BME280;56781;42.292;23.146;2023-12-22T05:29:53;93945.25;;;0.30;89.85
69570;BME280;56781;42.292;23.146;2023-12-22T05:32:22;93684.28;;;-1.69;89.65
69570;BME280;56781;42.292;23.146;2023-12-22T05:34:51;93945.72;;;0.21;90.96
69570;BME280;56781;42.292;23.146;2023-12-22T05:37:20;93931.19;;;0.09;89.97
69570;BME280;56781;42.292;23.146;2023-12-22T05:39:49;93898.19;;;-0.44;91.23
69570;BME280;56781;42.292;23.146;2023-12-22T05:42:18;93647.84;;;-2.04;91.07
69570;BME280;56781;42.292;23.146;2023-12-22T05:44:48;93867.59;;;-0.61;92.17
69570;BME280;56781;42.292;23.146;2023-12-22T05:47:17;93868.69;;;-0.51;91.82
69570;BME280;56781;42.292;23.146;2023-12-22T05:49:46;93936.66;;;0.29;90.27
69570;BME280;56781;42.292;23.146;2023-12-22T05:52:15;93657.38;;;-1.62;89.93
69570;BME280;56781;42.292;23.146;2023-12-22T05:54:44;93894.06;;;0.11;90.31
69570;BME280;56781;42.292;23.146;2023-12-22T05:57:13;93633.66;;;-2.00;91.44
69570;BME280;56781;42.292;23.146;2023-12-22T05:59:42;93751.94;;;-1.01;91.24
69570;BME280;56781;42.292;23.146;2023-12-22T06:02:13;93746.41;;;-1.14;91.46
69570;BME280;56781;42.292;23.146;2023-12-22T06:04:42;93764.97;;;-0.94;91.81
69570;BME280;56781;42.292;23.146;2023-12-22T06:07:11;93581.84;;;-2.19;92.37
69570;BME280;56781;42.292;23.146;2023-12-22T06:09:40;93916.41;;;-0.22;93.01
69570;BME280;56781;42.292;23.146;2023-12-22T06:12:10;93925.47;;;0.18;93.39
69570;BME280;56781;42.292;23.146;2023-12-22T06:14:40;93911.81;;;0.41;92.50
69570;BME280;56781;42.292;23.146;2023-12-22T06:17:08;93913.16;;;0.15;92.53
69570;BME280;56781;42.292;23.146;2023-12-22T06:19:39;93793.56;;;-0.65;93.16
69570;BME280;56781;42.292;23.146;2023-12-22T06:22:08;93724.94;;;-0.91;93.00
69570;BME280;56781;42.292;23.146;2023-12-22T06:24:36;93606.97;;;-1.70;92.70
69570;BME280;56781;42.292;23.146;2023-12-22T06:27:05;93644.59;;;-1.53;92.75
69570;BME280;56781;42.292;23.146;2023-12-22T06:29:35;93880.22;;;0.10;92.88
69570;BME280;56781;42.292;23.146;2023-12-22T06:32:05;93606.66;;;-1.79;92.78
69570;BME280;56781;42.292;23.146;2023-12-22T06:34:35;93838.28;;;-0.38;93.19
69570;BME280;56781;42.292;23.146;2023-12-22T06:37:05;93956.25;;;0.14;93.54
69570;BME280;56781;42.292;23.146;2023-12-22T06:39:36;93922.94;;;0.52;93.17
69570;BME280;56781;42.292;23.146;2023-12-22T06:42:05;93908.94;;;0.24;92.47
69570;BME280;56781;42.292;23.146;2023-12-22T06:44:38;93919.91;;;0.12;93.22
69570;BME280;56781;42.292;23.146;2023-12-22T06:47:09;93887.28;;;0.20;92.60
69570;BME280;56781;42.292;23.146;2023-12-22T06:49:39;93930.06;;;0.55;91.65
69570;BME280;56781;42.292;23.146;2023-12-22T06:52:10;93928.88;;;0.60;91.88
69570;BME280;56781;42.292;23.146;2023-12-22T06:54:39;93569.09;;;-2.06;90.71
69570;BME280;56781;42.292;23.146;2023-12-22T06:57:08;93935.09;;;0.35;91.91
69570;BME280;56781;42.292;23.146;2023-12-22T06:59:39;93582.19;;;-2.10;92.47
69570;BME280;56781;42.292;23.146;2023-12-22T07:02:09;93941.97;;;0.18;93.48
69570;BME280;56781;42.292;23.146;2023-12-22T07:07:56;93772.31;;;-0.74;92.31
69570;BME280;56781;42.292;23.146;2023-12-22T07:10:25;93924.09;;;0.47;92.66
69570;BME280;56781;42.292;23.146;2023-12-22T07:12:54;93890.31;;;0.12;92.49
69570;BME280;56781;42.292;23.146;2023-12-22T07:15:23;93879.94;;;0.01;92.94
69570;BME280;56781;42.292;23.146;2023-12-22T07:17:52;93597.06;;;-1.96;92.44
69570;BME280;56781;42.292;23.146;2023-12-22T07:20:21;93932.81;;;0.37;92.56
69570;BME280;56781;42.292;23.146;2023-12-22T07:22:50;93920.59;;;0.20;93.08
69570;BME280;56781;42.292;23.146;2023-12-22T07:25:23;93942.75;;;0.60;92.30
69570;BME280;56781;42.292;23.146;2023-12-22T07:27:52;93895.59;;;0.08;91.49
69570;BME280;56781;42.292;23.146;2023-12-22T07:30:22;93906.38;;;0.17;91.74
69570;BME280;56781;42.292;23.146;2023-12-22T07:32:51;93670.75;;;-1.53;91.71
69570;BME280;56781;42.292;23.146;2023-12-22T07:35:21;93674.22;;;-1.77;92.83
69570;BME280;56781;42.292;23.146;2023-12-22T07:37:50;93950.31;;;0.51;92.56
69570;BME280;56781;42.292;23.146;2023-12-22T07:40:21;93888.38;;;0.19;92.30
69570;BME280;56781;42.292;23.146;2023-12-22T07:42:51;93962.84;;;0.33;92.26
69570;BME280;56781;42.292;23.146;2023-12-22T07:45:20;93960.03;;;0.54;92.35
69570;BME280;56781;42.292;23.146;2023-12-22T07:47:49;93651.63;;;-1.43;91.49
69570;BME280;56781;42.292;23.146;2023-12-22T07:50:18;93640.84;;;-1.48;91.95
69570;BME280;56781;42.292;23.146;2023-12-22T07:52:49;93962.25;;;0.59;91.65
69570;BME280;56781;42.292;23.146;2023-12-22T07:55:18;93908.06;;;0.42;91.75
69570;BME280;56781;42.292;23.146;2023-12-22T07:57:47;93811.28;;;-0.32;91.46
69570;BME280;56781;42.292;23.146;2023-12-22T08:00:18;93912.59;;;0.38;91.43
69570;BME280;56781;42.292;23.146;2023-12-22T08:02:47;93677.69;;;-1.21;90.95
69570;BME280;56781;42.292;23.146;2023-12-22T08:05:16;93969.25;;;0.73;92.02
69570;BME280;56781;42.292;23.146;2023-12-22T08:07:46;93921.75;;;0.60;91.42
69570;BME280;56781;42.292;23.146;2023-12-22T08:10:15;93705.63;;;-1.07;90.81
69570;BME280;56781;42.292;23.146;2023-12-22T08:12:44;93935.50;;;0.75;91.13
69570;BME280;56781;42.292;23.146;2023-12-22T08:15:13;93888.63;;;0.36;90.54
69570;BME280;56781;42.292;23.146;2023-12-22T08:17:56;93940.16;;;0.57;90.70
69570;BME280;56781;42.292;23.146;2023-12-22T08:20:25;93690.28;;;-1.09;91.00
69570;BME280;56781;42.292;23.146;2023-12-22T08:23:03;93988.38;;;1.11;90.77
69570;BME280;56781;42.292;23.146;2023-12-22T08:25:37;94002.00;;;0.99;90.42
69570;BME280;56781;42.292;23.146;2023-12-22T08:28:09;93786.81;;;-0.59;91.30
69570;BME280;56781;42.292;23.146;2023-12-22T08:30:40;93753.84;;;-0.57;91.20
69570;BME280;56781;42.292;23.146;2023-12-22T08:33:11;94008.50;;;1.25;90.20
69570;BME280;56781;42.292;23.146;2023-12-22T08:35:40;93952.59;;;1.24;89.25
69570;BME280;56781;42.292;23.146;2023-12-22T08:38:09;93898.72;;;0.78;88.73
69570;BME280;56781;42.292;23.146;2023-12-22T08:40:41;93657.16;;;-0.78;89.11
69570;BME280;56781;42.292;23.146;2023-12-22T08:43:09;93863.75;;;0.51;88.77
69570;BME280;56781;42.292;23.146;2023-12-22T08:45:38;93676.22;;;-0.77;88.59
69570;BME280;56781;42.292;23.146;2023-12-22T08:48:07;93706.16;;;-0.78;89.91
69570;BME280;56781;42.292;23.146;2023-12-22T08:50:38;93996.91;;;1.22;90.44
69570;BME280;56781;42.292;23.146;2023-12-22T08:53:06;93641.75;;;-1.17;90.66
69570;BME280;56781;42.292;23.146;2023-12-22T08:55:35;93991.84;;;1.01;90.94
69570;BME280;56781;42.292;23.146;2023-12-22T08:58:04;93784.56;;;0.25;89.18
69570;BME280;56781;42.292;23.146;2023-12-22T09:00:33;93794.56;;;0.38;88.90
69570;BME280;56781;42.292;23.146;2023-12-22T09:03:03;93992.00;;;1.24;89.93
69570;BME280;56781;42.292;23.146;2023-12-22T09:05:31;93647.59;;;-0.99;90.17
69570;BME280;56781;42.292;23.146;2023-12-22T09:08:02;93990.56;;;1.84;88.96
69570;BME280;56781;42.292;23.146;2023-12-22T09:10:31;93988.66;;;1.54;89.06
69570;BME280;56781;42.292;23.146;2023-12-22T09:13:00;93983.78;;;1.56;89.97
69570;BME280;56781;42.292;23.146;2023-12-22T09:15:29;93983.28;;;1.65;89.60
69570;BME280;56781;42.292;23.146;2023-12-22T09:17:58;93937.31;;;1.50;89.81
69570;BME280;56781;42.292;23.146;2023-12-22T09:20:27;93704.13;;;-0.19;89.01
69570;BME280;56781;42.292;23.146;2023-12-22T09:22:57;93701.69;;;-0.37;89.99
69570;BME280;56781;42.292;23.146;2023-12-22T09:25:28;93847.44;;;1.01;88.54
69570;BME280;56781;42.292;23.146;2023-12-22T09:27:56;93937.59;;;1.25;89.84
69570;BME280;56781;42.292;23.146;2023-12-22T09:30:25;93938.00;;;1.23;90.37
69570;BME280;56781;42.292;23.146;2023-12-22T09:32:54;93936.84;;;1.24;91.27
69570;BME280;56781;42.292;23.146;2023-12-22T09:35:23;93917.53;;;1.38;90.87
69570;BME280;56781;42.292;23.146;2023-12-22T09:37:54;93982.19;;;1.89;90.57
69570;BME280;56781;42.292;23.146;2023-12-22T09:40:23;93650.63;;;-0.59;90.39
69570;BME280;56781;42.292;23.146;2023-12-22T09:42:54;93819.00;;;0.65;90.98
69570;BME280;56781;42.292;23.146;2023-12-22T09:45:24;93747.97;;;0.49;89.62
69570;BME280;56781;42.292;23.146;2023-12-22T09:47:53;93700.13;;;0.07;90.38
69570;BME280;56781;42.292;23.146;2023-12-22T09:50:24;93648.22;;;-0.05;89.55
69570;BME280;56781;42.292;23.146;2023-12-22T09:52:53;93969.31;;;1.99;90.29
69570;BME280;56781;42.292;23.146;2023-12-22T09:55:23;93759.25;;;0.46;90.55
69570;BME280;56781;42.292;23.146;2023-12-22T09:57:54;93779.41;;;0.52;91.43
69570;BME280;56781;42.292;23.146;2023-12-22T10:00:27;93666.50;;;-0.02;91.48
69570;BME280;56781;42.292;23.146;2023-12-22T10:02:57;93978.06;;;2.19;91.42
69570;BME280;56781;42.292;23.146;2023-12-22T10:05:26;93960.41;;;2.43;90.34
69570;BME280;56781;42.292;23.146;2023-12-22T10:07:56;93958.84;;;2.22;90.05
69570;BME280;56781;42.292;23.146;2023-12-22T10:10:26;93659.06;;;0.28;90.09
69570;BME280;56781;42.292;23.146;2023-12-22T10:12:59;93904.16;;;1.83;90.46
69570;BME280;56781;42.292;23.146;2023-12-22T10:15:30;93954.56;;;2.32;91.04
69570;BME280;56781;42.292;23.146;2023-12-22T10:18:00;93906.41;;;2.35;90.77
69570;BME280;56781;42.292;23.146;2023-12-22T10:20:30;93752.88;;;1.04;90.46
69570;BME280;56781;42.292;23.146;2023-12-22T10:23:00;93952.19;;;2.84;88.84
69570;BME280;56781;42.292;23.146;2023-12-22T10:25:29;93790.50;;;1.52;89.73
69570;BME280;56781;42.292;23.146;2023-12-22T10:28:01;93664.94;;;1.16;87.07
69570;BME280;56781;42.292;23.146;2023-12-22T10:30:32;93940.63;;;2.58;88.69
69570;BME280;56781;42.292;23.146;2023-12-22T10:33:03;93946.69;;;2.32;90.07
69570;BME280;56781;42.292;23.146;2023-12-22T10:35:32;93647.78;;;0.31;90.04
69570;BME280;56781;42.292;23.146;2023-12-22T10:38:01;93946.97;;;2.37;91.11
69570;BME280;56781;42.292;23.146;2023-12-22T10:40:30;93946.38;;;2.26;90.44
69570;BME280;56781;42.292;23.146;2023-12-22T10:43:01;93781.22;;;0.90;91.25
69570;BME280;56781;42.292;23.146;2023-12-22T10:45:31;93692.53;;;0.47;91.85
69570;BME280;56781;42.292;23.146;2023-12-22T10:47:59;93934.47;;;2.18;92.45
69570;BME280;56781;42.292;23.146;2023-12-22T10:50:29;93639.03;;;0.41;90.41
69570;BME280;56781;42.292;23.146;2023-12-22T10:52:58;93898.84;;;1.90;91.37
69570;BME280;56781;42.292;23.146;2023-12-22T10:55:28;93693.09;;;0.31;91.86
69570;BME280;56781;42.292;23.146;2023-12-22T10:58:03;93946.19;;;2.37;92.01
69570;BME280;56781;42.292;23.146;2023-12-22T11:00:32;93870.47;;;2.01;92.25
69570;BME280;56781;42.292;23.146;2023-12-22T11:03:06;93925.09;;;2.64;91.91
69570;BME280;56781;42.292;23.146;2023-12-22T11:05:36;93923.91;;;2.45;92.17
69570;BME280;56781;42.292;23.146;2023-12-22T11:08:07;93623.22;;;0.17;92.92
69570;BME280;56781;42.292;23.146;2023-12-22T11:10:42;93766.41;;;1.57;92.82
69570;BME280;56781;42.292;23.146;2023-12-22T11:13:15;93568.97;;;0.65;90.23
69570;BME280;56781;42.292;23.146;2023-12-22T11:15:45;93891.31;;;2.82;90.23
69570;BME280;56781;42.292;23.146;2023-12-22T11:18:15;93529.22;;;0.43;90.18
69570;BME280;56781;42.292;23.146;2023-12-22T11:20:45;93879.00;;;2.95;89.69
69570;BME280;56781;42.292;23.146;2023-12-22T11:23:16;93865.84;;;2.76;90.44
69570;BME280;56781;42.292;23.146;2023-12-22T11:25:48;93730.31;;;1.81;90.45
69570;BME280;56781;42.292;23.146;2023-12-22T11:28:23;93605.34;;;1.13;90.47
69570;BME280;56781;42.292;23.146;2023-12-22T11:30:52;93589.59;;;0.90;91.18
69570;BME280;56781;42.292;23.146;2023-12-22T11:33:25;93574.75;;;0.79;91.30
69570;BME280;56781;42.292;23.146;2023-12-22T11:35:56;93519.19;;;0.11;91.61
69570;BME280;56781;42.292;23.146;2023-12-22T11:38:25;93753.44;;;1.70;92.68
69570;BME280;56781;42.292;23.146;2023-12-22T11:40:54;93802.00;;;1.85;92.82
69570;BME280;56781;42.292;23.146;2023-12-22T11:43:27;93850.59;;;2.43;92.52
69570;BME280;56781;42.292;23.146;2023-12-22T11:46:01;93898.59;;;2.94;92.56
69570;BME280;56781;42.292;23.146;2023-12-22T11:48:30;93609.63;;;1.03;91.16
69570;BME280;56781;42.292;23.146;2023-12-22T11:51:00;93653.63;;;1.43;92.10
69570;BME280;56781;42.292;23.146;2023-12-22T11:53:30;93728.66;;;1.90;91.05
69570;BME280;56781;42.292;23.146;2023-12-22T11:56:03;93608.53;;;1.24;90.61
69570;BME280;56781;42.292;23.146;2023-12-22T11:58:35;93802.38;;;2.50;90.70
69570;BME280;56781;42.292;23.146;2023-12-22T12:01:06;93904.91;;;3.20;91.37
69570;BME280;56781;42.292;23.146;2023-12-22T12:03:41;93880.16;;;2.94;91.30
69570;BME280;56781;42.292;23.146;2023-12-22T12:06:17;93905.16;;;3.46;90.61
69570;BME280;56781;42.292;23.146;2023-12-22T12:08:50;93925.63;;;3.18;90.43
69570;BME280;56781;42.292;23.146;2023-12-22T12:11:21;93777.84;;;2.13;91.28
69570;BME280;56781;42.292;23.146;2023-12-22T12:13:51;93925.38;;;3.13;91.14
69570;BME280;56781;42.292;23.146;2023-12-22T12:16:21;93929.03;;;3.19;90.84
69570;BME280;56781;42.292;23.146;2023-12-22T12:18:51;93901.28;;;3.11;90.90
69570;BME280;56781;42.292;23.146;2023-12-22T12:21:21;93905.44;;;3.12;90.43
69570;BME280;56781;42.292;23.146;2023-12-22T12:23:50;93912.47;;;2.98;91.55
69570;BME280;56781;42.292;23.146;2023-12-22T12:26:19;93964.75;;;3.40;90.99
69570;BME280;56781;42.292;23.146;2023-12-22T12:28:48;93870.38;;;2.95;90.39
69570;BME280;56781;42.292;23.146;2023-12-22T12:31:19;93772.63;;;2.10;90.75
69570;BME280;56781;42.292;23.146;2023-12-22T12:34:04;93919.22;;;3.19;90.24
69570;BME280;56781;42.292;23.146;2023-12-22T12:36:34;93702.09;;;1.85;88.80
69570;BME280;56781;42.292;23.146;2023-12-22T12:39:07;93798.19;;;2.09;89.30
69570;BME280;56781;42.292;23.146;2023-12-22T12:41:40;93914.25;;;2.38;92.51
69570;BME280;56781;42.292;23.146;2023-12-22T12:44:10;93980.53;;;3.00;92.46
69570;BME280;56781;42.292;23.146;2023-12-22T12:46:41;93979.50;;;2.94;92.53
69570;BME280;56781;42.292;23.146;2023-12-22T12:49:11;93936.34;;;2.44;94.07
69570;BME280;56781;42.292;23.146;2023-12-22T12:51:43;93928.25;;;2.79;92.20
69570;BME280;56781;42.292;23.146;2023-12-22T12:54:13;93737.13;;;1.31;92.54
69570;BME280;56781;42.292;23.146;2023-12-22T12:56:43;93787.13;;;1.51;93.17
69570;BME280;56781;42.292;23.146;2023-12-22T12:59:13;93772.59;;;1.43;93.00
69570;BME280;56781;42.292;23.146;2023-12-22T13:01:44;93757.47;;;1.74;91.89
69570;BME280;56781;42.292;23.146;2023-12-22T13:04:14;93931.13;;;2.84;92.91
69570;BME280;56781;42.292;23.146;2023-12-22T13:06:44;93924.75;;;2.85;92.83
69570;BME280;56781;42.292;23.146;2023-12-22T13:09:13;93623.25;;;0.95;92.89
69570;BME280;56781;42.292;23.146;2023-12-22T13:11:43;93724.56;;;1.66;92.16